sensor_id;sensor_type;location;lat;lon;timestamp;pressure;altitude;pressure_sealevel;temperature;humidity
14885;BME280;7534;50.762;7.000;2023-01-15T00:01:50;148129.47;;;7.41;100.00
14885;BME280;7534;50.762;7.000;2023-01-15T00:04:16;148102.06;;;7.31;100.00
14885;BME280;7534;50.762;7.000;2023-01-15T00:06:42;148119.06;;;7.37;100.00
14885;BME280;7534;50.762;7.000;2023-01-15T00:09:14;148128.16;;;7.41;100.00
14885;BME280;7534;50.762;7.000;2023-01-15T00:11:40;148122.94;;;7.39;100.00
14885;BME280;7534;50.762;7.000;2023-01-15T00:14:06;148146.44;;;7.48;100.00
14885;BME280;7534;50.762;7.000;2023-01-15T00:16:31;148096.88;;;7.28;100.00
14885;BME280;7534;50.762;7.000;2023-01-15T00:19:00;148083.78;;;7.23;100.00
14885;BME280;7534;50.762;7.000;2023-01-15T00:21:27;148042.03;;;7.07;100.00
14885;BME280;7534;50.762;7.000;2023-01-15T00:23:54;148086.41;;;7.24;100.00
14885;BME280;7534;50.762;7.000;2023-01-15T00:26:39;148056.44;;;7.13;100.00
14885;BME280;7534;50.762;7.000;2023-01-15T00:29:24;148016.00;;;6.97;100.00
14885;BME280;7534;50.762;7.000;2023-01-15T00:32:05;148047.28;;;7.09;100.00
14885;BME280;7534;50.762;7.000;2023-01-15T00:34:32;147948.16;;;6.71;100.00
14885;BME280;7534;50.762;7.000;2023-01-15T00:36:58;148021.16;;;6.99;100.00
14885;BME280;7534;50.762;7.000;2023-01-15T00:39:25;147961.19;;;6.76;100.00
14885;BME280;7534;50.762;7.000;2023-01-15T00:41:52;147995.13;;;6.89;100.00
14885;BME280;7534;50.762;7.000;2023-01-15T00:44:18;147975.50;;;6.81;100.00
14885;BME280;7534;50.762;7.000;2023-01-15T00:46:45;148025.09;;;7.01;100.00
14885;BME280;7534;50.762;7.000;2023-01-15T00:49:11;147997.69;;;6.90;100.00
14885;BME280;7534;50.762;7.000;2023-01-15T00:51:36;147989.88;;;6.87;100.00
14885;BME280;7534;50.762;7.000;2023-01-15T00:54:03;147911.66;;;6.57;100.00
14885;BME280;7534;50.762;7.000;2023-01-15T00:56:30;148004.22;;;6.93;100.00
14885;BME280;7534;50.762;7.000;2023-01-15T00:58:56;147966.41;;;6.78;100.00
14885;BME280;7534;50.762;7.000;2023-01-15T01:01:23;147987.28;;;6.86;100.00
14885;BME280;7534;50.762;7.000;2023-01-15T01:03:50;147918.13;;;6.59;100.00
14885;BME280;7534;50.762;7.000;2023-01-15T01:06:18;148002.91;;;6.92;100.00
14885;BME280;7534;50.762;7.000;2023-01-15T01:08:45;147976.81;;;6.82;100.00
14885;BME280;7534;50.762;7.000;2023-01-15T01:11:14;147966.41;;;6.78;100.00
14885;BME280;7534;50.762;7.000;2023-01-15T01:13:41;147982.03;;;6.84;100.00
14885;BME280;7534;50.762;7.000;2023-01-15T01:16:23;147966.41;;;6.78;100.00
14885;BME280;7534;50.762;7.000;2023-01-15T01:18:49;147987.28;;;6.86;100.00
14885;BME280;7534;50.762;7.000;2023-01-15T01:21:15;147966.41;;;6.78;100.00
14885;BME280;7534;50.762;7.000;2023-01-15T01:23:41;147939.00;;;6.67;100.00
14885;BME280;7534;50.762;7.000;2023-01-15T01:26:07;147958.56;;;6.75;100.00
14885;BME280;7534;50.762;7.000;2023-01-15T01:28:32;147935.06;;;6.66;100.00
14885;BME280;7534;50.762;7.000;2023-01-15T01:30:58;147945.53;;;6.70;100.00
14885;BME280;7534;50.762;7.000;2023-01-15T01:33:24;147922.06;;;6.61;98.79
14885;BME280;7534;50.762;7.000;2023-01-15T01:35:50;147924.69;;;6.62;98.05
14885;BME280;7534;50.762;7.000;2023-01-15T01:38:17;147902.50;;;6.53;96.81
14885;BME280;7534;50.762;7.000;2023-01-15T01:40:42;147909.03;;;6.56;95.98
14885;BME280;7534;50.762;7.000;2023-01-15T01:43:24;147955.94;;;6.74;95.67
14885;BME280;7534;50.762;7.000;2023-01-15T01:45:50;147961.19;;;6.76;94.34
14885;BME280;7534;50.762;7.000;2023-01-15T01:48:20;147976.81;;;6.82;94.82
14885;BME280;7534;50.762;7.000;2023-01-15T01:50:49;147953.38;;;6.73;93.94
14885;BME280;7534;50.762;7.000;2023-01-15T01:53:28;147941.63;;;6.68;93.15
14885;BME280;7534;50.762;7.000;2023-01-15T01:55:57;147966.41;;;6.78;93.69
14885;BME280;7534;50.762;7.000;2023-01-15T01:58:28;147948.16;;;6.71;93.29
14885;BME280;7534;50.762;7.000;2023-01-15T02:00:55;147950.75;;;6.72;92.94
14885;BME280;7534;50.762;7.000;2023-01-15T02:03:33;147945.53;;;6.70;92.22
14885;BME280;7534;50.762;7.000;2023-01-15T02:06:06;147971.63;;;6.80;93.31
14885;BME280;7534;50.762;7.000;2023-01-15T02:08:33;147939.00;;;6.67;92.53
14885;BME280;7534;50.762;7.000;2023-01-15T02:11:00;147952.06;;;6.72;93.03
14885;BME280;7534;50.762;7.000;2023-01-15T02:13:40;147955.94;;;6.74;92.38
14885;BME280;7534;50.762;7.000;2023-01-15T02:16:22;147955.94;;;6.74;92.02
14885;BME280;7534;50.762;7.000;2023-01-15T02:21:49;147959.88;;;6.75;91.19
14885;BME280;7534;50.762;7.000;2023-01-15T02:27:18;147949.47;;;6.71;91.54
14885;BME280;7534;50.762;7.000;2023-01-15T02:30:05;147937.69;;;6.67;91.08
14885;BME280;7534;50.762;7.000;2023-01-15T02:32:58;147950.75;;;6.72;91.70
14885;BME280;7534;50.762;7.000;2023-01-15T02:35:40;147925.97;;;6.62;90.68
14885;BME280;7534;50.762;7.000;2023-01-15T02:38:18;147945.53;;;6.70;91.53
14885;BME280;7534;50.762;7.000;2023-01-15T02:40:48;147971.63;;;6.80;91.17
14885;BME280;7534;50.762;7.000;2023-01-15T02:43:16;147949.47;;;6.71;91.14
14885;BME280;7534;50.762;7.000;2023-01-15T02:45:48;147967.72;;;6.78;91.36
14885;BME280;7534;50.762;7.000;2023-01-15T02:48:20;147950.75;;;6.72;90.25
14885;BME280;7534;50.762;7.000;2023-01-15T02:50:54;147963.78;;;6.77;90.69
14885;BME280;7534;50.762;7.000;2023-01-15T02:53:26;147982.03;;;6.84;91.07
14885;BME280;7534;50.762;7.000;2023-01-15T02:56:02;147989.88;;;6.87;90.79
14885;BME280;7534;50.762;7.000;2023-01-15T02:58:36;147972.94;;;6.80;90.38
14885;BME280;7534;50.762;7.000;2023-01-15T03:01:14;147948.16;;;6.71;89.53
14885;BME280;7534;50.762;7.000;2023-01-15T03:03:58;147935.06;;;6.66;88.88
14885;BME280;7534;50.762;7.000;2023-01-15T03:06:41;147980.72;;;6.83;89.69
14885;BME280;7534;50.762;7.000;2023-01-15T03:09:08;147984.66;;;6.85;88.99
14885;BME280;7534;50.762;7.000;2023-01-15T03:11:44;147967.72;;;6.78;89.18
14885;BME280;7534;50.762;7.000;2023-01-15T03:14:24;147993.81;;;6.88;88.40
14885;BME280;7534;50.762;7.000;2023-01-15T03:16:56;147970.31;;;6.79;88.53
14885;BME280;7534;50.762;7.000;2023-01-15T03:19:49;148006.84;;;6.94;87.95
14885;BME280;7534;50.762;7.000;2023-01-15T03:22:30;147992.50;;;6.88;87.79
14885;BME280;7534;50.762;7.000;2023-01-15T03:25:15;147989.88;;;6.87;88.24
14885;BME280;7534;50.762;7.000;2023-01-15T03:27:43;148000.31;;;6.91;88.56
14885;BME280;7534;50.762;7.000;2023-01-15T03:30:16;148016.00;;;6.97;88.71
14885;BME280;7534;50.762;7.000;2023-01-15T03:32:42;147984.66;;;6.85;88.01
14885;BME280;7534;50.762;7.000;2023-01-15T03:35:50;147969.00;;;6.79;88.13
14885;BME280;7534;50.762;7.000;2023-01-15T03:38:22;147975.50;;;6.81;88.41
14885;BME280;7534;50.762;7.000;2023-01-15T03:41:29;147974.25;;;6.81;87.41
14885;BME280;7534;50.762;7.000;2023-01-15T03:44:39;147996.38;;;6.89;85.37
14885;BME280;7534;50.762;7.000;2023-01-15T03:47:32;148001.59;;;6.92;84.83
14885;BME280;7534;50.762;7.000;2023-01-15T03:52:43;148008.13;;;6.94;82.17
14885;BME280;7534;50.762;7.000;2023-01-15T03:55:25;148031.63;;;7.03;82.55
14885;BME280;7534;50.762;7.000;2023-01-15T03:58:02;148017.25;;;6.98;80.82
14885;BME280;7534;50.762;7.000;2023-01-15T04:00:50;148036.84;;;7.05;82.08
14885;BME280;7534;50.762;7.000;2023-01-15T04:03:19;148036.84;;;7.05;81.47
14885;BME280;7534;50.762;7.000;2023-01-15T04:05:47;147958.56;;;6.75;81.96
14885;BME280;7534;50.762;7.000;2023-01-15T04:08:15;148013.38;;;6.96;82.18
14885;BME280;7534;50.762;7.000;2023-01-15T04:10:59;148068.16;;;7.17;82.22
14885;BME280;7534;50.762;7.000;2023-01-15T04:13:25;148029.00;;;7.02;83.56
14885;BME280;7534;50.762;7.000;2023-01-15T04:15:51;148082.47;;;7.23;83.26
14885;BME280;7534;50.762;7.000;2023-01-15T04:18:17;148025.09;;;7.01;83.42
14885;BME280;7534;50.762;7.000;2023-01-15T04:20:44;148017.25;;;6.98;83.45
14885;BME280;7534;50.762;7.000;2023-01-15T04:23:10;147976.81;;;6.82;84.53
14885;BME280;7534;50.762;7.000;2023-01-15T04:25:36;148008.13;;;6.94;84.85
14885;BME280;7534;50.762;7.000;2023-01-15T04:28:02;147993.81;;;6.88;84.32
14885;BME280;7534;50.762;7.000;2023-01-15T04:30:28;147971.63;;;6.80;85.04
14885;BME280;7534;50.762;7.000;2023-01-15T04:32:53;147978.13;;;6.82;85.15
14885;BME280;7534;50.762;7.000;2023-01-15T04:35:20;147910.34;;;6.56;84.64
14885;BME280;7534;50.762;7.000;2023-01-15T04:37:46;147957.25;;;6.74;85.74
14885;BME280;7534;50.762;7.000;2023-01-15T04:40:12;147948.16;;;6.71;86.05
14885;BME280;7534;50.762;7.000;2023-01-15T04:42:58;147945.53;;;6.70;85.34
14885;BME280;7534;50.762;7.000;2023-01-15T04:45:43;147944.22;;;6.69;85.76
14885;BME280;7534;50.762;7.000;2023-01-15T04:48:10;147953.38;;;6.73;85.56
14885;BME280;7534;50.762;7.000;2023-01-15T04:50:37;147955.94;;;6.74;85.06
14885;BME280;7534;50.762;7.000;2023-01-15T04:53:03;147958.56;;;6.75;84.48
14885;BME280;7534;50.762;7.000;2023-01-15T04:55:29;147957.25;;;6.74;83.42
14885;BME280;7534;50.762;7.000;2023-01-15T04:57:55;147925.97;;;6.62;82.40
14885;BME280;7534;50.762;7.000;2023-01-15T05:00:21;147936.38;;;6.66;81.10
14885;BME280;7534;50.762;7.000;2023-01-15T05:02:48;147971.63;;;6.80;81.50
14885;BME280;7534;50.762;7.000;2023-01-15T05:05:14;147974.25;;;6.81;80.16
14885;BME280;7534;50.762;7.000;2023-01-15T05:07:40;147989.88;;;6.87;80.30
14885;BME280;7534;50.762;7.000;2023-01-15T05:10:07;147929.91;;;6.64;80.31
14885;BME280;7534;50.762;7.000;2023-01-15T05:12:33;147984.66;;;6.85;78.35
14885;BME280;7534;50.762;7.000;2023-01-15T05:14:59;147932.50;;;6.65;78.61
14885;BME280;7534;50.762;7.000;2023-01-15T05:17:25;147944.22;;;6.69;79.81
14885;BME280;7534;50.762;7.000;2023-01-15T05:19:50;147902.50;;;6.53;78.81
14885;BME280;7534;50.762;7.000;2023-01-15T05:22:16;147899.88;;;6.52;78.60
14885;BME280;7534;50.762;7.000;2023-01-15T05:24:42;147925.97;;;6.62;78.13
14885;BME280;7534;50.762;7.000;2023-01-15T05:27:07;147941.63;;;6.68;77.71
14885;BME280;7534;50.762;7.000;2023-01-15T05:29:33;147984.66;;;6.85;77.90
14885;BME280;7534;50.762;7.000;2023-01-15T05:31:59;147937.69;;;6.67;77.95
14885;BME280;7534;50.762;7.000;2023-01-15T05:34:25;147933.78;;;6.65;78.00
14885;BME280;7534;50.762;7.000;2023-01-15T05:36:54;147885.56;;;6.46;77.93
14885;BME280;7534;50.762;7.000;2023-01-15T05:39:20;147906.41;;;6.55;78.47
14885;BME280;7534;50.762;7.000;2023-01-15T05:41:45;147862.09;;;6.37;78.76
14885;BME280;7534;50.762;7.000;2023-01-15T05:44:26;147915.53;;;6.58;79.71
14885;BME280;7534;50.762;7.000;2023-01-15T05:46:58;147920.75;;;6.60;80.01
14885;BME280;7534;50.762;7.000;2023-01-15T05:49:26;147871.19;;;6.41;80.03
14885;BME280;7534;50.762;7.000;2023-01-15T05:51:53;147866.00;;;6.39;80.13
14885;BME280;7534;50.762;7.000;2023-01-15T05:54:23;147911.66;;;6.57;80.55
14885;BME280;7534;50.762;7.000;2023-01-15T05:56:50;147909.03;;;6.56;81.23
14885;BME280;7534;50.762;7.000;2023-01-15T05:59:19;147851.63;;;6.33;81.79
14885;BME280;7534;50.762;7.000;2023-01-15T06:01:45;147898.59;;;6.51;82.18
14885;BME280;7534;50.762;7.000;2023-01-15T06:04:12;147847.75;;;6.32;83.60
14885;BME280;7534;50.762;7.000;2023-01-15T06:06:40;147879.03;;;6.44;84.25
14885;BME280;7534;50.762;7.000;2023-01-15T06:09:07;147873.78;;;6.42;84.12
14885;BME280;7534;50.762;7.000;2023-01-15T06:11:32;147876.41;;;6.43;84.84
14885;BME280;7534;50.762;7.000;2023-01-15T06:13:59;147890.78;;;6.48;84.96
14885;BME280;7534;50.762;7.000;2023-01-15T06:16:25;147849.06;;;6.32;85.05
14885;BME280;7534;50.762;7.000;2023-01-15T06:18:51;147884.25;;;6.46;85.52
14885;BME280;7534;50.762;7.000;2023-01-15T06:21:17;147875.09;;;6.42;85.83
14885;BME280;7534;50.762;7.000;2023-01-15T06:23:43;147875.09;;;6.42;85.32
14885;BME280;7534;50.762;7.000;2023-01-15T06:26:16;147855.56;;;6.35;85.56
14885;BME280;7534;50.762;7.000;2023-01-15T06:28:44;147866.00;;;6.39;86.70
14885;BME280;7534;50.762;7.000;2023-01-15T06:31:16;147837.31;;;6.28;87.16
14885;BME280;7534;50.762;7.000;2023-01-15T06:33:43;147839.91;;;6.29;87.54
14885;BME280;7534;50.762;7.000;2023-01-15T06:36:15;147825.59;;;6.23;88.00
14885;BME280;7534;50.762;7.000;2023-01-15T06:38:41;147790.38;;;6.09;88.87
14885;BME280;7534;50.762;7.000;2023-01-15T06:41:14;147773.44;;;6.03;88.18
14885;BME280;7534;50.762;7.000;2023-01-15T06:44:00;147794.28;;;6.11;88.71
14885;BME280;7534;50.762;7.000;2023-01-15T06:46:47;147774.75;;;6.03;88.72
14885;BME280;7534;50.762;7.000;2023-01-15T06:49:33;147769.53;;;6.01;88.54
14885;BME280;7534;50.762;7.000;2023-01-15T06:52:00;147755.19;;;5.96;89.32
14885;BME280;7534;50.762;7.000;2023-01-15T06:54:26;147765.66;;;6.00;89.72
14885;BME280;7534;50.762;7.000;2023-01-15T06:56:52;147727.75;;;5.85;89.23
14885;BME280;7534;50.762;7.000;2023-01-15T06:59:19;147753.88;;;5.95;89.54
14885;BME280;7534;50.762;7.000;2023-01-15T07:01:45;147692.59;;;5.71;89.24
14885;BME280;7534;50.762;7.000;2023-01-15T07:04:11;147716.06;;;5.81;88.89
14885;BME280;7534;50.762;7.000;2023-01-15T07:06:38;147736.97;;;5.89;89.23
14885;BME280;7534;50.762;7.000;2023-01-15T07:09:04;147765.66;;;6.00;88.73
14885;BME280;7534;50.762;7.000;2023-01-15T07:11:29;147747.34;;;5.93;88.09
14885;BME280;7534;50.762;7.000;2023-01-15T07:13:55;147731.69;;;5.87;87.69
14885;BME280;7534;50.762;7.000;2023-01-15T07:16:36;147735.66;;;5.88;88.00
14885;BME280;7534;50.762;7.000;2023-01-15T07:19:03;147765.66;;;6.00;87.41
14885;BME280;7534;50.762;7.000;2023-01-15T07:21:29;147729.06;;;5.86;87.16
14885;BME280;7534;50.762;7.000;2023-01-15T07:23:58;147772.13;;;6.02;86.60
14885;BME280;7534;50.762;7.000;2023-01-15T07:26:25;147753.88;;;5.95;86.99
14885;BME280;7534;50.762;7.000;2023-01-15T07:28:51;147760.41;;;5.98;87.36
14885;BME280;7534;50.762;7.000;2023-01-15T07:31:17;147747.34;;;5.93;86.70
14885;BME280;7534;50.762;7.000;2023-01-15T07:33:43;147747.34;;;5.93;86.65
14885;BME280;7534;50.762;7.000;2023-01-15T07:36:09;147786.50;;;6.08;86.27
14885;BME280;7534;50.762;7.000;2023-01-15T07:38:35;147789.06;;;6.09;86.22
14885;BME280;7534;50.762;7.000;2023-01-15T07:41:01;147742.19;;;5.91;85.83
14885;BME280;7534;50.762;7.000;2023-01-15T07:43:50;147808.59;;;6.17;85.64
14885;BME280;7534;50.762;7.000;2023-01-15T07:46:35;147783.88;;;6.07;85.19
14885;BME280;7534;50.762;7.000;2023-01-15T07:49:19;147735.66;;;5.88;85.43
14885;BME280;7534;50.762;7.000;2023-01-15T07:52:03;147749.97;;;5.94;84.92
14885;BME280;7534;50.762;7.000;2023-01-15T07:54:29;147778.66;;;6.05;84.21
14885;BME280;7534;50.762;7.000;2023-01-15T07:56:55;147723.91;;;5.84;84.51
14885;BME280;7534;50.762;7.000;2023-01-15T07:59:21;147713.44;;;5.80;84.27
14885;BME280;7534;50.762;7.000;2023-01-15T08:01:47;147699.13;;;5.74;83.96
14885;BME280;7534;50.762;7.000;2023-01-15T08:04:13;147748.66;;;5.93;83.87
14885;BME280;7534;50.762;7.000;2023-01-15T08:06:39;147726.47;;;5.85;83.42
14885;BME280;7534;50.762;7.000;2023-01-15T08:09:04;147743.47;;;5.91;82.80
14885;BME280;7534;50.762;7.000;2023-01-15T08:11:32;147798.22;;;6.12;82.97
14885;BME280;7534;50.762;7.000;2023-01-15T08:14:17;147776.03;;;6.04;82.23
14885;BME280;7534;50.762;7.000;2023-01-15T08:17:02;147778.66;;;6.05;82.72
14885;BME280;7534;50.762;7.000;2023-01-15T08:19:27;147783.88;;;6.07;83.88
14885;BME280;7534;50.762;7.000;2023-01-15T08:21:58;147808.59;;;6.17;84.42
14885;BME280;7534;50.762;7.000;2023-01-15T08:24:26;147893.34;;;6.49;85.08
14885;BME280;7534;50.762;7.000;2023-01-15T08:26:53;147987.28;;;6.86;82.67
14885;BME280;7534;50.762;7.000;2023-01-15T08:29:21;147979.44;;;6.83;81.62
14885;BME280;7534;50.762;7.000;2023-01-15T08:31:47;147949.47;;;6.71;81.77
14885;BME280;7534;50.762;7.000;2023-01-15T08:34:14;147971.63;;;6.80;82.26
14885;BME280;7534;50.762;7.000;2023-01-15T08:36:40;147946.84;;;6.70;82.82
14885;BME280;7534;50.762;7.000;2023-01-15T08:39:05;147940.31;;;6.68;82.79
14885;BME280;7534;50.762;7.000;2023-01-15T08:41:31;147970.31;;;6.79;82.34
14885;BME280;7534;50.762;7.000;2023-01-15T08:43:57;147987.28;;;6.86;83.75
14885;BME280;7534;50.762;7.000;2023-01-15T08:46:24;147989.88;;;6.87;83.80
14885;BME280;7534;50.762;7.000;2023-01-15T08:48:50;147953.38;;;6.73;83.55
14885;BME280;7534;50.762;7.000;2023-01-15T08:51:15;147989.88;;;6.87;83.16
14885;BME280;7534;50.762;7.000;2023-01-15T08:53:41;147936.38;;;6.66;82.57
14885;BME280;7534;50.762;7.000;2023-01-15T08:56:15;147954.63;;;6.73;82.56
14885;BME280;7534;50.762;7.000;2023-01-15T08:58:44;148004.22;;;6.93;82.54
14885;BME280;7534;50.762;7.000;2023-01-15T09:01:11;147969.00;;;6.79;82.25
14885;BME280;7534;50.762;7.000;2023-01-15T09:03:41;148012.06;;;6.96;81.63
14885;BME280;7534;50.762;7.000;2023-01-15T09:06:08;148005.53;;;6.93;81.77
14885;BME280;7534;50.762;7.000;2023-01-15T09:08:36;147993.81;;;6.88;81.44
14885;BME280;7534;50.762;7.000;2023-01-15T09:11:04;148012.06;;;6.96;81.41
14885;BME280;7534;50.762;7.000;2023-01-15T09:13:32;148000.31;;;6.91;81.50
14885;BME280;7534;50.762;7.000;2023-01-15T09:16:03;148025.09;;;7.01;81.21
14885;BME280;7534;50.762;7.000;2023-01-15T09:18:29;148026.41;;;7.01;80.25
14885;BME280;7534;50.762;7.000;2023-01-15T09:20:55;148045.97;;;7.09;80.14
14885;BME280;7534;50.762;7.000;2023-01-15T09:23:21;147971.63;;;6.80;79.52
14885;BME280;7534;50.762;7.000;2023-01-15T09:26:02;148035.56;;;7.05;79.57
14885;BME280;7534;50.762;7.000;2023-01-15T09:28:33;148060.28;;;7.14;79.69
14885;BME280;7534;50.762;7.000;2023-01-15T09:31:00;148055.13;;;7.12;78.86
14885;BME280;7534;50.762;7.000;2023-01-15T09:33:26;148023.78;;;7.00;78.93
14885;BME280;7534;50.762;7.000;2023-01-15T09:35:52;148040.72;;;7.07;77.82
14885;BME280;7534;50.762;7.000;2023-01-15T09:38:20;148061.59;;;7.15;77.44
14885;BME280;7534;50.762;7.000;2023-01-15T09:40:51;148115.13;;;7.36;76.86
14885;BME280;7534;50.762;7.000;2023-01-15T09:43:50;148053.81;;;7.12;77.23
14885;BME280;7534;50.762;7.000;2023-01-15T09:46:25;148047.28;;;7.09;77.24
14885;BME280;7534;50.762;7.000;2023-01-15T09:49:27;148018.56;;;6.98;77.37
14885;BME280;7534;50.762;7.000;2023-01-15T09:57:31;148036.84;;;7.05;77.00
14885;BME280;7534;50.762;7.000;2023-01-15T09:59:58;148039.41;;;7.06;76.18
14885;BME280;7534;50.762;7.000;2023-01-15T10:02:43;148099.50;;;7.30;75.81
14885;BME280;7534;50.762;7.000;2023-01-15T10:05:30;148092.94;;;7.27;75.50
14885;BME280;7534;50.762;7.000;2023-01-15T10:08:16;148049.88;;;7.10;74.85
14885;BME280;7534;50.762;7.000;2023-01-15T10:10:49;148039.41;;;7.06;74.40
14885;BME280;7534;50.762;7.000;2023-01-15T10:13:40;148043.34;;;7.08;74.89
14885;BME280;7534;50.762;7.000;2023-01-15T10:16:10;148016.00;;;6.97;74.18
14885;BME280;7534;50.762;7.000;2023-01-15T10:18:37;148021.16;;;6.99;74.48
14885;BME280;7534;50.762;7.000;2023-01-15T10:21:27;148052.50;;;7.11;74.56
14885;BME280;7534;50.762;7.000;2023-01-15T10:24:17;148051.19;;;7.11;74.09
14885;BME280;7534;50.762;7.000;2023-01-15T10:26:55;148069.44;;;7.18;74.10
14885;BME280;7534;50.762;7.000;2023-01-15T10:29:45;148082.47;;;7.23;72.88
14885;BME280;7534;50.762;7.000;2023-01-15T10:32:45;148091.63;;;7.26;72.87
14885;BME280;7534;50.762;7.000;2023-01-15T10:35:28;148139.94;;;7.45;72.17
14885;BME280;7534;50.762;7.000;2023-01-15T10:38:23;148143.81;;;7.47;71.61
14885;BME280;7534;50.762;7.000;2023-01-15T10:43:42;148202.59;;;7.70;71.51
14885;BME280;7534;50.762;7.000;2023-01-15T10:46:21;148224.78;;;7.78;70.75
14885;BME280;7534;50.762;7.000;2023-01-15T10:48:54;148244.34;;;7.86;69.44
14885;BME280;7534;50.762;7.000;2023-01-15T10:51:49;148235.19;;;7.82;68.73
14885;BME280;7534;50.762;7.000;2023-01-15T10:54:34;148194.72;;;7.66;68.02
14885;BME280;7534;50.762;7.000;2023-01-15T10:57:28;148224.78;;;7.78;68.40
14885;BME280;7534;50.762;7.000;2023-01-15T11:00:01;148228.66;;;7.80;68.20
14885;BME280;7534;50.762;7.000;2023-01-15T11:02:44;148275.66;;;7.98;68.58
14885;BME280;7534;50.762;7.000;2023-01-15T11:05:20;148292.63;;;8.04;68.29
14885;BME280;7534;50.762;7.000;2023-01-15T11:07:49;148303.09;;;8.09;67.09
14885;BME280;7534;50.762;7.000;2023-01-15T11:10:21;148309.59;;;8.11;66.23
14885;BME280;7534;50.762;7.000;2023-01-15T11:13:20;148359.25;;;8.30;67.17
14885;BME280;7534;50.762;7.000;2023-01-15T11:16:13;148335.72;;;8.21;65.52
14885;BME280;7534;50.762;7.000;2023-01-15T11:19:04;148293.94;;;8.05;66.11
14885;BME280;7534;50.762;7.000;2023-01-15T11:21:51;148249.53;;;7.88;66.04
14885;BME280;7534;50.762;7.000;2023-01-15T11:24:18;148236.50;;;7.83;64.88
14885;BME280;7534;50.762;7.000;2023-01-15T11:26:52;148286.13;;;8.02;65.35
14885;BME280;7534;50.762;7.000;2023-01-15T11:29:34;148292.63;;;8.04;65.11
14885;BME280;7534;50.762;7.000;2023-01-15T11:32:18;148270.44;;;7.96;65.86
14885;BME280;7534;50.762;7.000;2023-01-15T11:35:00;148283.50;;;8.01;65.88
14885;BME280;7534;50.762;7.000;2023-01-15T11:37:27;148271.72;;;7.96;65.71
14885;BME280;7534;50.762;7.000;2023-01-15T11:39:57;148321.38;;;8.16;66.44
14885;BME280;7534;50.762;7.000;2023-01-15T11:42:29;148357.94;;;8.30;64.70
14885;BME280;7534;50.762;7.000;2023-01-15T11:45:18;148403.69;;;8.48;64.31
14885;BME280;7534;50.762;7.000;2023-01-15T11:48:17;148371.06;;;8.35;64.02
14885;BME280;7534;50.762;7.000;2023-01-15T11:51:09;148357.94;;;8.30;64.96
14885;BME280;7534;50.762;7.000;2023-01-15T11:53:53;148339.66;;;8.23;64.88
14885;BME280;7534;50.762;7.000;2023-01-15T11:56:25;148410.25;;;8.50;65.30
14885;BME280;7534;50.762;7.000;2023-01-15T11:59:00;148483.38;;;8.78;64.32
14885;BME280;7534;50.762;7.000;2023-01-15T12:01:45;148582.69;;;9.17;63.43
14885;BME280;7534;50.762;7.000;2023-01-15T12:04:53;148594.47;;;9.22;62.55
14885;BME280;7534;50.762;7.000;2023-01-15T12:07:23;148638.94;;;9.39;62.63
14885;BME280;7534;50.762;7.000;2023-01-15T12:10:15;148589.25;;;9.19;61.83
14885;BME280;7534;50.762;7.000;2023-01-15T12:16:49;148611.47;;;9.28;61.24
14885;BME280;7534;50.762;7.000;2023-01-15T12:19:14;148551.34;;;9.05;62.38
14885;BME280;7534;50.762;7.000;2023-01-15T12:22:32;148527.81;;;8.96;62.78
14885;BME280;7534;50.762;7.000;2023-01-15T12:25:05;148506.91;;;8.88;63.13
14885;BME280;7534;50.762;7.000;2023-01-15T12:27:51;148414.13;;;8.52;63.21
14885;BME280;7534;50.762;7.000;2023-01-15T12:30:59;148433.75;;;8.59;64.03
14885;BME280;7534;50.762;7.000;2023-01-15T12:33:48;148454.66;;;8.67;63.58
14885;BME280;7534;50.762;7.000;2023-01-15T12:36:25;148393.22;;;8.43;64.06
14885;BME280;7534;50.762;7.000;2023-01-15T12:39:17;148310.91;;;8.12;64.14
14885;BME280;7534;50.762;7.000;2023-01-15T12:41:52;148390.66;;;8.43;64.15
14885;BME280;7534;50.762;7.000;2023-01-15T12:44:47;148347.50;;;8.26;64.00
14885;BME280;7534;50.762;7.000;2023-01-15T12:47:48;148339.66;;;8.23;64.70
14885;BME280;7534;50.762;7.000;2023-01-15T12:50:51;148367.16;;;8.33;64.08
14885;BME280;7534;50.762;7.000;2023-01-15T12:53:42;148474.25;;;8.75;64.10
14885;BME280;7534;50.762;7.000;2023-01-15T12:56:20;148467.72;;;8.72;63.37
14885;BME280;7534;50.762;7.000;2023-01-15T12:59:18;148397.16;;;8.45;63.12
14885;BME280;7534;50.762;7.000;2023-01-15T13:02:26;148397.16;;;8.45;63.54
14885;BME280;7534;50.762;7.000;2023-01-15T13:05:15;148356.63;;;8.29;64.03
14885;BME280;7534;50.762;7.000;2023-01-15T13:10:50;148432.47;;;8.59;63.61
14885;BME280;7534;50.762;7.000;2023-01-15T13:13:22;148423.28;;;8.55;63.52
14885;BME280;7534;50.762;7.000;2023-01-15T13:19:20;148480.75;;;8.77;63.02
14885;BME280;7534;50.762;7.000;2023-01-15T13:21:50;148440.25;;;8.62;62.47
14885;BME280;7534;50.762;7.000;2023-01-15T13:24:55;148449.44;;;8.65;62.04
14885;BME280;7534;50.762;7.000;2023-01-15T13:33:42;148487.31;;;8.80;61.19
14885;BME280;7534;50.762;7.000;2023-01-15T13:36:26;148467.72;;;8.72;62.50
14885;BME280;7534;50.762;7.000;2023-01-15T13:38:59;148461.16;;;8.70;61.64
14885;BME280;7534;50.762;7.000;2023-01-15T13:41:30;148467.72;;;8.72;62.24
14885;BME280;7534;50.762;7.000;2023-01-15T13:44:31;148476.84;;;8.76;63.05
14885;BME280;7534;50.762;7.000;2023-01-15T13:47:12;148462.47;;;8.70;61.37
14885;BME280;7534;50.762;7.000;2023-01-15T13:49:49;148412.88;;;8.51;62.44
14885;BME280;7534;50.762;7.000;2023-01-15T13:52:35;148397.16;;;8.45;62.87
14885;BME280;7534;50.762;7.000;2023-01-15T13:57:42;148399.78;;;8.46;62.87
14885;BME280;7534;50.762;7.000;2023-01-15T14:00:36;148346.19;;;8.25;62.85
14885;BME280;7534;50.762;7.000;2023-01-15T14:03:34;148367.16;;;8.33;62.39
14885;BME280;7534;50.762;7.000;2023-01-15T14:06:06;148410.25;;;8.50;62.15
14885;BME280;7534;50.762;7.000;2023-01-15T14:08:43;148437.66;;;8.61;62.02
14885;BME280;7534;50.762;7.000;2023-01-15T14:17:53;148446.81;;;8.64;61.64
14885;BME280;7534;50.762;7.000;2023-01-15T14:20:47;148444.19;;;8.63;62.29
14885;BME280;7534;50.762;7.000;2023-01-15T14:27:03;148407.63;;;8.49;61.86
14885;BME280;7534;50.762;7.000;2023-01-15T14:35:00;148380.19;;;8.38;61.42
14885;BME280;7534;50.762;7.000;2023-01-15T14:37:53;148373.63;;;8.36;62.26
14885;BME280;7534;50.762;7.000;2023-01-15T14:40:29;148360.59;;;8.31;61.64